Aeroporto :
LOGIN :

Iscrizione | Disclaimer

   EN    FR    IT 

 










Sommario :    VFR   VFR Marginale   IFR   IFR Intensivo   IFR Molto Intensivo
Visibilità : 
Base nubi : 
>= 8 km
>= 3000ft
5 / 8 km
1000 / 3000 ft
1500m / 5 km
500 / 1000 ft
800 / 1500m
200 / 500 ft
< 800m
< 200 ft
Simboli :   Temporali  Nebbia  Neve Forte  Precipitazioni Forti  Vento > 20 kt
SIGMETs :   Varie  Temporali  Ghiacco  Turbolenza  Onda orograficha  Ceneri Vulcaniche






- Altitudine del aeroporto : 24 ft
- Codice IATA : IBZ


LEIB - Ibiza

ULTIMO METAR :
  • 302000Z AUTO 05004KT CAVOK 13/10 Q1012

METARs OBSOLETI :
  • 301930Z AUTO 03003KT 9999 FEW030/// 13/10 Q1012
  • 301900Z VRB01KT 9999 FEW025 13/10 Q1012 NOSIG
  • 301830Z 02004KT 9999 FEW025 14/10 Q1012 NOSIG
  • 301800Z 02006KT 9999 FEW025 14/10 Q1011 NOSIG
  • 301730Z 03008KT 9999 FEW025 14/10 Q1011 NOSIG

TAF TAF LEIB
Valido dal 30 a 15 ore il 31 a 15 ore UTC


301400Z 3015/3115 02012KT 9999 FEW010 SCT015 BKN020 TX18/3112Z TN08/3106Z
BECMG 3019/3021 02006KT
PROB40
TEMPO 3106/3115 4000 SHRA SCT020TCU BKN025 OVC030
BECMG 3103/3105 08015KT
TEMPO 3107/3113 09015G25KT



MetMap, La meteo Aeronautica in un colpo d'occhio ! - Copyright ORBIFLY Dicembre 2007 - Disclaimer

ORBIFLY MET'MAP TEAM :

Programmazione e sviluppo : Alexandra Zaïnal
Concezione : Baudouin d'Aumeries
Aiuto per la programmazione : Marc-Olivier Méhu
Supporto tecnico e logistico : Manuel Goepfert
Aiuto per la traduzione : Arnaldo La Scala

Contatto : metmap@orbifly.com




FONTI E CREDITI :

   NOAA